Time;durP1;ratioP1;P1;durP2;ratioP2;P2;SDS_P1;SDS_P2;PMS_P1;PMS_P2;Temp;Humidity;BMP_temperature;BMP_pressure;BME280_temperature;BME280_humidity;BME280_pressure;Samples;Min_cycle;Max_cycle;Signal;HPM_P1;HPM_P2
2021/03/26 00:01:27;;;;;;;65.82;31.77;;;;;;;;;;5074216;28;20087;-87
2021/03/26 00:03:54;;;;;;;71.72;34.45;;;;;;;;;;5073059;28;20029;-86
2021/03/26 00:06:22;;;;;;;66.03;33.63;;;;;;;;;;5061788;28;20060;-87
2021/03/26 00:08:48;;;;;;;63.70;30.27;;;;;;;;;;5062170;28;20093;-87
2021/03/26 00:11:15;;;;;;;69.65;31.95;;;;;;;;;;5073559;28;20392;-87
2021/03/26 00:13:42;;;;;;;64.32;32.13;;;;;;;;;;5058418;28;20017;-87
2021/03/26 00:16:10;;;;;;;61.28;31.90;;;;;;;;;;5060251;28;20031;-87
2021/03/26 00:18:36;;;;;;;63.58;31.88;;;;;;;;;;5064020;28;20036;-87
2021/03/26 00:21:02;;;;;;;70.60;33.80;;;;;;;;;;5065597;28;20120;-87
2021/03/26 00:23:28;;;;;;;60.10;31.05;;;;;;;;;;5065376;28;20033;-87
2021/03/26 00:25:54;;;;;;;72.85;32.47;;;;;;;;;;5063526;28;20064;-87
2021/03/26 00:28:20;;;;;;;67.50;32.33;;;;;;;;;;5063970;28;20409;-87
2021/03/26 00:30:46;;;;;;;70.20;33.85;;;;;;;;;;5080539;28;20036;-86
2021/03/26 00:33:13;;;;;;;69.63;32.17;;;;;;;;;;5067801;28;20028;-88
2021/03/26 00:35:39;;;;;;;70.57;33.30;;;;;;;;;;5067901;28;20025;-88
2021/03/26 00:38:05;;;;;;;67.97;32.47;;;;;;;;;;5070690;28;20021;-87
2021/03/26 00:40:32;;;;;;;67.50;31.58;;;;;;;;;;5063920;28;20049;-87
2021/03/26 00:42:58;;;;;;;70.45;33.08;;;;;;;;;;5063679;28;20033;-88
2021/03/26 00:45:26;;;;;;;67.93;31.10;;;;;;;;;;5080477;28;20025;-87
2021/03/26 00:47:52;;;;;;;68.10;32.65;;;;;;;;;;5064066;28;20048;-87
2021/03/26 00:50:24;;;;;;;73.40;32.15;;;;;;;;;;5075625;28;20027;-87
2021/03/26 00:52:50;;;;;;;66.03;32.13;;;;;;;;;;5070395;28;20092;-87
2021/03/26 00:55:16;;;;;;;72.03;33.40;;;;;;;;;;5063427;28;20017;-87
2021/03/26 00:57:42;;;;;;;70.55;33.53;;;;;;;;;;5064029;28;20040;-87
2021/03/26 01:00:10;;;;;;;66.43;31.30;;;;;;;;;;5067980;28;20036;-87
2021/03/26 01:02:36;;;;;;;67.18;32.38;;;;;;;;;;5067113;28;20029;-87
2021/03/26 01:05:05;;;;;;;71.47;34.78;;;;;;;;;;5066763;28;20373;-87
2021/03/26 01:07:31;;;;;;;66.97;32.13;;;;;;;;;;5083774;28;20040;-87
2021/03/26 01:09:57;;;;;;;68.05;31.85;;;;;;;;;;5063029;28;20036;-88
2021/03/26 01:12:23;;;;;;;69.30;31.58;;;;;;;;;;5061708;28;20040;-87
2021/03/26 01:14:49;;;;;;;78.15;35.10;;;;;;;;;;5063948;28;20108;-87
2021/03/26 01:17:15;;;;;;;67.35;33.80;;;;;;;;;;5064513;28;20025;-87
2021/03/26 01:19:42;;;;;;;67.22;31.45;;;;;;;;;;5063857;28;20036;-87
2021/03/26 01:22:09;;;;;;;75.88;33.10;;;;;;;;;;5043506;28;557663;-87
2021/03/26 01:24:35;;;;;;;66.10;32.45;;;;;;;;;;5067004;28;20032;-87
2021/03/26 01:27:01;;;;;;;63.45;30.38;;;;;;;;;;5072284;28;20024;-87
2021/03/26 01:29:27;;;;;;;78.60;34.75;;;;;;;;;;5063837;28;20120;-88
2021/03/26 01:31:53;;;;;;;67.80;31.83;;;;;;;;;;5061101;28;20079;-87
2021/03/26 01:34:19;;;;;;;75.75;32.10;;;;;;;;;;5059868;28;20031;-88
2021/03/26 01:36:45;;;;;;;70.97;34.08;;;;;;;;;;5061875;28;20029;-88
2021/03/26 01:39:12;;;;;;;77.05;35.53;;;;;;;;;;5060289;28;20029;-88
2021/03/26 01:41:42;;;;;;;78.47;33.97;;;;;;;;;;5078324;28;20035;-87
2021/03/26 01:44:10;;;;;;;80.78;34.05;;;;;;;;;;5071941;28;20020;-87
2021/03/26 01:46:38;;;;;;;71.13;34.60;;;;;;;;;;5081128;28;20067;-88
2021/03/26 01:49:05;;;;;;;72.80;33.63;;;;;;;;;;5067780;28;20123;-87
2021/03/26 01:51:33;;;;;;;79.43;34.85;;;;;;;;;;5054401;28;20093;-87
2021/03/26 01:54:00;;;;;;;67.30;32.63;;;;;;;;;;5066975;28;20047;-87
2021/03/26 01:56:27;;;;;;;78.50;35.75;;;;;;;;;;5062613;28;20032;-87
2021/03/26 01:58:53;;;;;;;70.95;33.92;;;;;;;;;;5063800;28;20033;-87
2021/03/26 02:01:21;;;;;;;71.05;32.38;;;;;;;;;;5077696;28;20481;-87
2021/03/26 02:03:49;;;;;;;71.60;33.13;;;;;;;;;;5068897;28;20032;-87
2021/03/26 02:06:27;;;;;;;69.60;32.63;;;;;;;;;;5053544;28;20029;-87
2021/03/26 02:08:59;;;;;;;68.57;31.98;;;;;;;;;;5059158;28;20048;-87
2021/03/26 02:11:43;;;;;;;67.33;32.13;;;;;;;;;;5080394;28;20029;-88
2021/03/26 02:14:11;;;;;;;74.22;33.08;;;;;;;;;;5065587;28;20052;-88
2021/03/26 02:16:37;;;;;;;71.40;32.70;;;;;;;;;;5061784;28;20112;-88
2021/03/26 02:19:06;;;;;;;70.97;34.00;;;;;;;;;;5062273;28;20056;-87
2021/03/26 02:21:33;;;;;;;72.78;34.50;;;;;;;;;;5065740;28;20484;-87
2021/03/26 02:24:03;;;;;;;71.22;33.53;;;;;;;;;;5067103;28;20041;-87
2021/03/26 02:26:32;;;;;;;70.63;33.05;;;;;;;;;;5073944;28;20029;-87
2021/03/26 02:28:59;;;;;;;76.13;32.95;;;;;;;;;;5069831;28;20024;-87
2021/03/26 02:31:25;;;;;;;68.53;32.38;;;;;;;;;;5075268;28;20025;-87
2021/03/26 02:33:51;;;;;;;68.85;32.97;;;;;;;;;;5071776;28;20021;-87
2021/03/26 02:36:18;;;;;;;65.15;33.00;;;;;;;;;;5072231;28;20025;-87
2021/03/26 02:38:57;;;;;;;69.90;33.33;;;;;;;;;;5082806;28;20055;-87
2021/03/26 02:41:23;;;;;;;72.95;35.63;;;;;;;;;;5065190;28;20040;-87
2021/03/26 02:43:56;;;;;;;72.55;34.15;;;;;;;;;;5078013;28;20029;-87
2021/03/26 02:46:28;;;;;;;77.93;36.55;;;;;;;;;;5067132;28;20036;-87
2021/03/26 02:49:00;;;;;;;73.93;36.73;;;;;;;;;;5066722;28;20033;-87
2021/03/26 02:51:29;;;;;;;75.95;34.25;;;;;;;;;;5065430;28;20037;-87
2021/03/26 02:54:14;;;;;;;70.45;32.53;;;;;;;;;;5067127;28;20032;-87
2021/03/26 02:56:45;;;;;;;65.00;32.22;;;;;;;;;;5069315;28;20104;-87
2021/03/26 02:59:12;;;;;;;59.65;30.13;;;;;;;;;;5068817;28;20025;-87
2021/03/26 03:01:41;;;;;;;66.47;31.50;;;;;;;;;;5069027;28;20395;-87
2021/03/26 03:04:15;;;;;;;68.53;32.33;;;;;;;;;;5068225;28;20028;-87
2021/03/26 03:06:41;;;;;;;;;;;;;;;;;;5076035;28;20070;-87
2021/03/26 03:09:08;;;;;;;70.45;32.30;;;;;;;;;;5066271;28;19909;-87
2021/03/26 03:11:36;;;;;;;62.45;31.00;;;;;;;;;;5066102;28;20112;-87
2021/03/26 03:14:07;;;;;;;61.80;30.33;;;;;;;;;;5068131;28;20017;-87
2021/03/26 03:16:42;;;;;;;68.75;33.17;;;;;;;;;;5049812;28;20555;-88
2021/03/26 03:19:27;;;;;;;61.97;29.92;;;;;;;;;;5056430;28;20029;-87
2021/03/26 03:21:58;;;;;;;60.75;29.45;;;;;;;;;;5064143;28;20558;-87
2021/03/26 03:24:32;;;;;;;57.85;29.88;;;;;;;;;;5066407;28;20021;-87
2021/03/26 03:27:11;;;;;;;62.88;30.40;;;;;;;;;;5063254;28;20033;-87
2021/03/26 03:29:40;;;;;;;62.65;31.73;;;;;;;;;;5070361;28;20474;-87
2021/03/26 03:32:12;;;;;;;62.05;30.38;;;;;;;;;;5062591;28;20037;-87
2021/03/26 03:34:40;;;;;;;64.43;29.75;;;;;;;;;;5062288;28;20120;-87
2021/03/26 03:37:19;;;;;;;61.40;29.25;;;;;;;;;;5072880;28;20036;-87
2021/03/26 03:39:45;;;;;;;57.15;28.20;;;;;;;;;;5060051;28;20029;-87
2021/03/26 03:42:22;;;;;;;62.08;30.80;;;;;;;;;;5071874;28;20067;-87
2021/03/26 03:44:56;;;;;;;55.83;28.23;;;;;;;;;;5060653;28;20033;-87
2021/03/26 03:47:37;;;;;;;56.20;28.63;;;;;;;;;;5046728;28;20523;-87
2021/03/26 03:50:19;;;;;;;64.38;30.58;;;;;;;;;;5058889;28;20040;-87
2021/03/26 03:52:50;;;;;;;62.33;30.13;;;;;;;;;;5055888;28;20029;-87
2021/03/26 03:55:42;;;;;;;58.85;27.42;;;;;;;;;;5060829;28;20060;-87
2021/03/26 03:58:12;;;;;;;57.08;27.80;;;;;;;;;;5052913;28;20036;-87
2021/03/26 04:00:41;;;;;;;54.20;27.13;;;;;;;;;;5057642;28;20021;-87
2021/03/26 04:03:14;;;;;;;57.03;27.33;;;;;;;;;;5075873;28;20061;-87
2021/03/26 04:05:51;;;;;;;50.85;25.10;;;;;;;;;;5061010;28;20044;-87
2021/03/26 04:08:33;;;;;;;48.20;24.48;;;;;;;;;;5064188;28;20027;-87
2021/03/26 04:11:20;;;;;;;47.28;24.35;;;;;;;;;;5058697;28;20033;-87
2021/03/26 04:13:49;;;;;;;49.40;25.38;;;;;;;;;;5078584;28;20307;-87
2021/03/26 04:16:18;;;;;;;55.83;25.33;;;;;;;;;;5070862;28;20025;-87
2021/03/26 04:18:51;;;;;;;50.00;25.05;;;;;;;;;;5061296;28;20017;-87
2021/03/26 04:21:21;;;;;;;50.63;25.65;;;;;;;;;;5060819;28;20086;-87
2021/03/26 04:23:59;;;;;;;46.53;23.08;;;;;;;;;;5075340;28;20415;-87
2021/03/26 04:26:34;;;;;;;45.92;23.58;;;;;;;;;;5064741;28;20025;-87
2021/03/26 04:29:03;;;;;;;50.53;25.55;;;;;;;;;;5069534;28;20040;-87
2021/03/26 04:31:33;;;;;;;52.60;26.17;;;;;;;;;;5054714;28;20045;-87
2021/03/26 04:34:00;;;;;;;55.03;26.33;;;;;;;;;;5059273;28;20029;-88
2021/03/26 04:36:28;;;;;;;50.15;26.42;;;;;;;;;;5084531;28;20016;-87
2021/03/26 04:39:02;;;;;;;60.28;28.75;;;;;;;;;;5064757;28;20108;-87
2021/03/26 04:41:58;;;;;;;56.00;27.73;;;;;;;;;;5061693;28;20037;-88
2021/03/26 04:44:32;;;;;;;63.17;30.83;;;;;;;;;;5033298;28;20045;-87
2021/03/26 04:47:15;;;;;;;73.00;33.38;;;;;;;;;;5066907;28;20502;-87
2021/03/26 04:49:45;;;;;;;67.63;31.55;;;;;;;;;;5065839;28;20028;-87
2021/03/26 04:52:24;;;;;;;72.72;32.17;;;;;;;;;;5063360;28;20468;-87
2021/03/26 04:55:06;;;;;;;73.72;34.97;;;;;;;;;;5064047;28;20047;-87
2021/03/26 04:57:37;;;;;;;70.67;33.80;;;;;;;;;;5061486;28;20473;-87
2021/03/26 05:00:07;;;;;;;74.85;33.30;;;;;;;;;;5066740;28;20050;-88
2021/03/26 05:02:33;;;;;;;57.03;31.58;;;;;;;;;;5059395;28;20025;-88
2021/03/26 05:05:01;;;;;;;69.25;33.20;;;;;;;;;;5071633;28;20488;-88
2021/03/26 05:07:34;;;;;;;60.10;29.63;;;;;;;;;;5059507;28;20035;-89
2021/03/26 05:10:03;;;;;;;62.25;30.02;;;;;;;;;;5073789;28;21326;-88
2021/03/26 05:12:34;;;;;;;70.30;33.53;;;;;;;;;;5060251;28;20430;-89
2021/03/26 05:15:09;;;;;;;75.80;34.25;;;;;;;;;;5054778;28;20401;-89
2021/03/26 05:17:50;;;;;;;70.88;34.53;;;;;;;;;;5051603;28;20018;-89
2021/03/26 05:20:26;;;;;;;75.28;33.63;;;;;;;;;;5048369;28;20025;-89
2021/03/26 05:22:52;;;;;;;68.28;33.97;;;;;;;;;;5052749;28;20556;-89
2021/03/26 05:25:31;;;;;;;68.32;32.33;;;;;;;;;;5067585;28;20025;-88
2021/03/26 05:27:58;;;;;;;72.20;33.20;;;;;;;;;;5068771;28;20037;-88
2021/03/26 05:30:26;;;;;;;72.70;35.45;;;;;;;;;;5050181;28;20120;-89
2021/03/26 05:32:55;;;;;;;70.57;34.80;;;;;;;;;;5064364;28;20122;-89
2021/03/26 05:35:39;;;;;;;71.28;35.08;;;;;;;;;;5052597;28;20025;-88
2021/03/26 05:38:11;;;;;;;73.15;35.38;;;;;;;;;;5072790;28;20085;-89
2021/03/26 05:40:47;;;;;;;73.37;34.70;;;;;;;;;;5078555;28;20100;-90
2021/03/26 05:43:45;;;;;;;70.60;34.50;;;;;;;;;;5075419;28;20120;-89
2021/03/26 05:46:24;;;;;;;61.80;32.35;;;;;;;;;;5057713;28;20041;-89
2021/03/26 05:49:04;;;;;;;72.93;35.75;;;;;;;;;;5060310;28;20032;-90
2021/03/26 05:51:39;;;;;;;69.68;33.97;;;;;;;;;;5063094;28;20044;-89
2021/03/26 05:54:22;;;;;;;63.78;32.53;;;;;;;;;;5055447;28;20020;-88
2021/03/26 05:56:56;;;;;;;65.45;33.85;;;;;;;;;;5054238;28;20025;-89
2021/03/26 05:59:33;;;;;;;58.42;30.85;;;;;;;;;;5062119;28;20036;-89
2021/03/26 06:02:18;;;;;;;61.80;30.73;;;;;;;;;;5058420;28;20102;-88
2021/03/26 06:04:44;;;;;;;62.08;29.55;;;;;;;;;;5058428;28;20029;-89
2021/03/26 06:07:29;;;;;;;64.82;31.48;;;;;;;;;;5053619;28;20039;-89
2021/03/26 06:10:16;;;;;;;63.45;31.58;;;;;;;;;;5055170;28;20029;-88
2021/03/26 06:12:49;;;;;;;60.22;30.50;;;;;;;;;;5055160;28;20039;-88
2021/03/26 06:15:38;;;;;;;65.28;32.58;;;;;;;;;;5056297;28;20023;-88
2021/03/26 06:18:13;;;;;;;66.28;31.23;;;;;;;;;;5058666;28;20060;-88
2021/03/26 06:20:52;;;;;;;61.97;30.02;;;;;;;;;;5055574;28;20421;-88
2021/03/26 06:23:21;;;;;;;65.20;30.25;;;;;;;;;;5058055;28;20510;-88
2021/03/26 06:25:47;;;;;;;62.30;31.10;;;;;;;;;;5063663;28;20484;-88
2021/03/26 06:28:13;;;;;;;64.05;33.33;;;;;;;;;;5056522;28;20032;-89
2021/03/26 06:30:53;;;;;;;65.28;31.85;;;;;;;;;;5054232;28;20040;-88
2021/03/26 06:33:41;;;;;;;65.38;32.17;;;;;;;;;;5054493;28;20025;-88
2021/03/26 06:36:19;;;;;;;83.45;37.25;;;;;;;;;;5063086;28;20111;-88
2021/03/26 06:38:53;;;;;;;77.43;37.65;;;;;;;;;;5061928;28;20029;-88
2021/03/26 06:41:32;;;;;;;65.45;31.75;;;;;;;;;;5071667;28;20024;-89
2021/03/26 06:44:13;;;;;;;69.22;33.00;;;;;;;;;;5055414;28;20090;-88
2021/03/26 06:46:53;;;;;;;82.80;37.22;;;;;;;;;;5050758;28;20040;-87
2021/03/26 06:49:33;;;;;;;75.05;37.90;;;;;;;;;;5068131;28;20452;-88
2021/03/26 06:52:17;;;;;;;85.57;39.83;;;;;;;;;;5057328;28;20465;-88
2021/03/26 06:54:43;;;;;;;85.55;42.08;;;;;;;;;;5057486;28;20040;-88
2021/03/26 06:57:22;;;;;;;90.18;40.35;;;;;;;;;;5054464;28;20032;-88
2021/03/26 07:00:02;;;;;;;86.70;41.33;;;;;;;;;;5055740;28;20028;-88
2021/03/26 07:02:28;;;;;;;80.35;39.30;;;;;;;;;;5056685;28;20025;-88
2021/03/26 07:05:03;;;;;;;80.10;39.47;;;;;;;;;;5069226;28;20033;-88
2021/03/26 07:07:46;;;;;;;88.22;42.13;;;;;;;;;;5057136;28;20481;-88
2021/03/26 07:10:17;;;;;;;91.93;42.72;;;;;;;;;;5056393;28;20064;-88
2021/03/26 07:12:49;;;;;;;88.43;41.67;;;;;;;;;;5076035;28;20119;-88
2021/03/26 07:15:23;;;;;;;94.95;43.42;;;;;;;;;;5058474;28;20025;-88
2021/03/26 07:17:52;;;;;;;85.03;42.67;;;;;;;;;;5057003;28;20044;-88
2021/03/26 07:20:26;;;;;;;88.45;41.58;;;;;;;;;;5055943;28;20529;-88
2021/03/26 07:23:15;;;;;;;84.18;40.00;;;;;;;;;;5055718;28;20077;-88
2021/03/26 07:25:53;;;;;;;88.07;41.25;;;;;;;;;;5053728;28;20040;-87
2021/03/26 07:28:31;;;;;;;88.22;41.85;;;;;;;;;;5057689;28;20039;-87
2021/03/26 07:31:15;;;;;;;81.07;39.78;;;;;;;;;;5070584;28;20029;-88
2021/03/26 07:33:44;;;;;;;79.53;39.00;;;;;;;;;;5052888;28;20056;-89
2021/03/26 07:36:23;;;;;;;74.07;36.92;;;;;;;;;;5049199;28;20116;-88
2021/03/26 07:38:58;;;;;;;79.53;37.42;;;;;;;;;;5054365;28;20551;-88
2021/03/26 07:41:43;;;;;;;87.53;39.67;;;;;;;;;;5064434;28;20392;-88
2021/03/26 07:44:20;;;;;;;89.07;39.70;;;;;;;;;;5052536;28;20121;-88
2021/03/26 07:47:25;;;;;;;84.75;39.42;;;;;;;;;;5046236;28;20025;-89
2021/03/26 07:50:09;;;;;;;74.00;38.05;;;;;;;;;;4955707;28;20129;-89
2021/03/26 07:52:42;;;;;;;80.10;38.25;;;;;;;;;;4967011;28;20446;-89
2021/03/26 07:55:08;;;;;;;72.13;35.85;;;;;;;;;;5018865;28;20037;-88
2021/03/26 07:57:48;;;;;;;82.03;39.60;;;;;;;;;;5046580;28;20503;-89
2021/03/26 08:00:33;;;;;;;84.13;39.60;;;;;;;;;;5049041;28;20033;-88
2021/03/26 08:03:12;;;;;;;83.68;39.60;;;;;;;;;;5058834;28;20024;-88
2021/03/26 08:05:42;;;;;;;80.10;39.65;;;;;;;;;;5060007;28;20021;-88
2021/03/26 08:08:27;;;;;;;82.28;39.95;;;;;;;;;;5051625;28;20387;-88
2021/03/26 08:11:01;;;;;;;86.95;41.40;;;;;;;;;;5052879;28;20026;-89
2021/03/26 08:13:33;;;;;;;79.38;40.63;;;;;;;;;;5057618;28;20029;-88
2021/03/26 08:15:59;;;;;;;79.30;40.50;;;;;;;;;;5051109;28;20059;-89
2021/03/26 08:18:28;;;;;;;89.32;41.25;;;;;;;;;;5051474;28;20283;-89
2021/03/26 08:21:13;;;;;;;83.28;41.45;;;;;;;;;;5059701;28;20032;-89
2021/03/26 08:24:09;;;;;;;87.88;40.22;;;;;;;;;;5053229;28;20503;-89
2021/03/26 08:26:35;;;;;;;85.63;41.70;;;;;;;;;;5055161;28;20024;-89
2021/03/26 08:29:25;;;;;;;92.35;42.40;;;;;;;;;;5050145;28;20024;-89
2021/03/26 08:32:00;;;;;;;86.25;42.03;;;;;;;;;;5056966;28;20035;-89
2021/03/26 08:34:45;;;;;;;83.82;40.25;;;;;;;;;;5058815;28;20025;-89
2021/03/26 08:37:31;;;;;;;90.95;42.33;;;;;;;;;;5064610;28;20025;-89
2021/03/26 08:39:58;;;;;;;81.95;40.53;;;;;;;;;;5054449;28;20400;-89
2021/03/26 08:42:24;;;;;;;87.05;42.38;;;;;;;;;;5067346;28;20091;-89
2021/03/26 08:44:52;;;;;;;87.85;39.47;;;;;;;;;;5051163;28;20024;-89
2021/03/26 08:47:24;;;;;;;87.90;40.35;;;;;;;;;;5049464;28;20078;-89
2021/03/26 08:50:13;;;;;;;84.10;39.80;;;;;;;;;;5052985;28;20500;-89
2021/03/26 08:52:46;;;;;;;75.05;39.70;;;;;;;;;;5034558;28;20124;-89
2021/03/26 08:55:18;;;;;;;91.13;42.08;;;;;;;;;;5054604;28;20036;-89
2021/03/26 08:57:53;;;;;;;72.72;36.92;;;;;;;;;;5054105;28;20052;-89
2021/03/26 09:00:24;;;;;;;90.00;38.45;;;;;;;;;;5045997;28;20098;-89
2021/03/26 09:02:57;;;;;;;81.05;39.28;;;;;;;;;;5046426;28;20330;-89
2021/03/26 09:05:23;;;;;;;83.45;37.80;;;;;;;;;;5046289;28;20092;-89
2021/03/26 09:08:01;;;;;;;79.05;36.97;;;;;;;;;;5049347;28;20029;-89
2021/03/26 09:10:53;;;;;;;87.75;37.92;;;;;;;;;;5050384;28;20021;-89
2021/03/26 09:13:30;;;;;;;74.95;37.15;;;;;;;;;;5045958;28;20033;-89
2021/03/26 09:15:59;;;;;;;74.93;36.90;;;;;;;;;;5047517;28;20029;-90
2021/03/26 09:18:25;;;;;;;73.18;36.13;;;;;;;;;;5047761;28;20119;-89
2021/03/26 09:20:51;;;;;;;80.95;36.95;;;;;;;;;;5043587;28;20384;-89
2021/03/26 09:23:36;;;;;;;73.10;35.25;;;;;;;;;;5050569;28;20041;-89
2021/03/26 09:26:21;;;;;;;76.05;36.33;;;;;;;;;;5054741;28;20033;-90
2021/03/26 09:28:52;;;;;;;65.25;31.20;;;;;;;;;;5043151;28;20032;-90
2021/03/26 09:31:29;;;;;;;63.10;33.33;;;;;;;;;;5071656;28;20037;-90
2021/03/26 09:34:19;;;;;;;65.20;32.53;;;;;;;;;;5061367;28;20051;-91
2021/03/26 09:36:46;;;;;;;59.40;31.40;;;;;;;;;;5053822;28;20029;-90
2021/03/26 09:39:17;;;;;;;64.47;31.20;;;;;;;;;;5070673;28;20034;-89
2021/03/26 09:41:52;;;;;;;63.17;34.25;;;;;;;;;;5052107;28;20036;-89
2021/03/26 09:44:28;;;;;;;67.40;34.05;;;;;;;;;;5054592;28;20094;-89
2021/03/26 09:47:23;;;;;;;66.90;34.63;;;;;;;;;;5068438;28;20082;-89
2021/03/26 09:50:13;;;;;;;67.18;33.60;;;;;;;;;;5040966;28;20052;-89
2021/03/26 09:52:43;;;;;;;68.28;34.53;;;;;;;;;;5042669;28;20037;-89
2021/03/26 09:55:11;;;;;;;68.38;34.17;;;;;;;;;;5054025;28;20028;-89
2021/03/26 09:57:56;;;;;;;67.35;33.97;;;;;;;;;;5054343;28;20037;-89
2021/03/26 10:00:40;;;;;;;69.32;35.50;;;;;;;;;;5067322;28;20095;-89
2021/03/26 10:03:11;;;;;;;73.10;34.60;;;;;;;;;;5053101;28;20037;-89
2021/03/26 10:05:51;;;;;;;74.13;37.15;;;;;;;;;;5053381;28;20029;-89
2021/03/26 10:08:50;;;;;;;70.40;35.80;;;;;;;;;;5053245;28;20120;-89
2021/03/26 10:11:24;;;;;;;73.25;36.30;;;;;;;;;;5053707;28;20033;-89
2021/03/26 10:13:52;;;;;;;82.82;39.20;;;;;;;;;;5052705;28;20056;-89
2021/03/26 10:16:25;;;;;;;69.35;34.35;;;;;;;;;;5053379;28;20025;-89
2021/03/26 10:19:05;;;;;;;75.32;36.05;;;;;;;;;;5053402;28;20473;-89
2021/03/26 10:21:32;;;;;;;77.30;38.60;;;;;;;;;;5070354;28;20615;-89
2021/03/26 10:24:13;;;;;;;84.43;39.53;;;;;;;;;;5052099;28;20048;-89
2021/03/26 10:26:44;;;;;;;80.07;38.38;;;;;;;;;;5053135;28;20028;-89
2021/03/26 10:29:19;;;;;;;83.28;39.28;;;;;;;;;;5037712;28;20025;-89
2021/03/26 10:31:47;;;;;;;77.78;40.47;;;;;;;;;;5066861;28;20115;-89
2021/03/26 10:34:16;;;;;;;85.03;38.17;;;;;;;;;;5054083;28;20025;-89
2021/03/26 10:36:53;;;;;;;84.95;39.60;;;;;;;;;;5052085;28;20025;-89
2021/03/26 10:39:35;;;;;;;81.32;38.92;;;;;;;;;;5056469;28;20027;-89
2021/03/26 10:42:09;;;;;;;67.53;35.63;;;;;;;;;;5057337;28;20074;-89
2021/03/26 10:45:02;;;;;;;76.30;38.08;;;;;;;;;;5053064;28;20033;-89
2021/03/26 10:47:35;;;;;;;79.25;39.33;;;;;;;;;;5041198;28;20029;-89
2021/03/26 10:50:10;;;;;;;75.53;38.47;;;;;;;;;;5053149;28;20036;-89
2021/03/26 10:52:39;;;;;;;86.70;42.08;;;;;;;;;;5049923;28;20029;-89
2021/03/26 10:55:10;;;;;;;72.45;36.30;;;;;;;;;;5050652;28;20029;-89
2021/03/26 10:58:06;;;;;;;77.88;38.80;;;;;;;;;;5056699;28;20383;-89
2021/03/26 11:00:37;;;;;;;74.88;39.20;;;;;;;;;;5042463;28;20120;-89
2021/03/26 11:03:11;;;;;;;75.60;38.63;;;;;;;;;;5073504;28;20096;-89
2021/03/26 11:05:37;;;;;;;77.57;37.50;;;;;;;;;;5061470;28;20029;-89
2021/03/26 11:08:25;;;;;;;80.78;38.97;;;;;;;;;;5053013;28;20025;-89
2021/03/26 11:11:05;;;;;;;78.15;36.83;;;;;;;;;;5059511;28;20037;-89
2021/03/26 11:13:36;;;;;;;72.72;35.97;;;;;;;;;;5052719;28;20139;-89
2021/03/26 11:16:05;;;;;;;83.63;39.10;;;;;;;;;;5068717;28;20024;-89
2021/03/26 11:18:34;;;;;;;77.93;35.65;;;;;;;;;;5047401;28;20022;-89
2021/03/26 11:21:12;;;;;;;75.90;34.05;;;;;;;;;;5046233;28;20025;-90
2021/03/26 11:23:39;;;;;;;70.45;33.35;;;;;;;;;;5057793;28;20052;-90
2021/03/26 11:26:05;;;;;;;56.47;29.35;;;;;;;;;;5053723;28;20511;-90
2021/03/26 11:28:39;;;;;;;58.53;30.10;;;;;;;;;;5076690;28;20017;-90
2021/03/26 11:31:11;;;;;;;54.80;28.02;;;;;;;;;;5055957;28;20514;-90
2021/03/26 11:33:40;;;;;;;54.00;29.00;;;;;;;;;;5052823;28;20472;-90
2021/03/26 11:36:26;;;;;;;50.38;26.13;;;;;;;;;;5061604;28;20025;-89
2021/03/26 11:39:01;;;;;;;53.42;26.75;;;;;;;;;;5052963;28;20029;-90
2021/03/26 11:41:33;;;;;;;46.45;25.80;;;;;;;;;;5052285;28;20115;-90
2021/03/26 11:44:02;;;;;;;52.83;26.45;;;;;;;;;;5053986;28;20476;-90
2021/03/26 11:46:35;;;;;;;49.67;25.40;;;;;;;;;;5058754;28;20107;-88
2021/03/26 11:49:01;;;;;;;50.20;24.58;;;;;;;;;;5070473;28;20458;-89
2021/03/26 11:51:39;;;;;;;43.70;24.25;;;;;;;;;;5057916;28;20029;-90
2021/03/26 11:54:10;;;;;;;46.47;24.83;;;;;;;;;;5050392;28;20030;-89
2021/03/26 11:56:39;;;;;;;51.33;25.05;;;;;;;;;;5049797;28;20537;-89
2021/03/26 11:59:11;;;;;;;44.00;24.23;;;;;;;;;;5055464;28;20077;-90
2021/03/26 12:01:57;;;;;;;44.88;22.42;;;;;;;;;;5039531;28;20021;-90
2021/03/26 12:04:29;;;;;;;41.75;22.88;;;;;;;;;;5051164;28;20124;-90
2021/03/26 12:07:01;;;;;;;48.40;23.60;;;;;;;;;;5050430;28;20025;-90
2021/03/26 12:10:02;;;;;;;46.42;24.95;;;;;;;;;;5054550;28;20123;-90
2021/03/26 12:12:37;;;;;;;47.75;24.48;;;;;;;;;;5022912;28;20503;-90
2021/03/26 12:15:09;;;;;;;43.78;23.63;;;;;;;;;;5053129;28;20013;-91
2021/03/26 12:17:37;;;;;;;44.47;23.60;;;;;;;;;;5050138;28;20021;-90
2021/03/26 12:20:09;;;;;;;46.17;24.80;;;;;;;;;;5068848;28;20029;-90
2021/03/26 12:22:42;;;;;;;44.72;23.63;;;;;;;;;;5047437;28;20076;-90
2021/03/26 12:25:25;;;;;;;48.40;24.58;;;;;;;;;;5050284;28;20033;-90
2021/03/26 12:27:53;;;;;;;46.25;26.00;;;;;;;;;;5067462;28;20105;-89
2021/03/26 12:30:22;;;;;;;50.85;25.48;;;;;;;;;;5049139;28;20037;-89
2021/03/26 12:32:55;;;;;;;51.00;26.65;;;;;;;;;;5046923;28;20480;-89
2021/03/26 12:35:42;;;;;;;46.17;25.13;;;;;;;;;;5050748;28;20050;-89
2021/03/26 12:38:13;;;;;;;51.00;24.85;;;;;;;;;;5050882;28;20032;-90
2021/03/26 12:40:42;;;;;;;44.78;22.77;;;;;;;;;;5050543;28;20017;-89
2021/03/26 12:43:21;;;;;;;49.25;24.05;;;;;;;;;;5044425;28;20380;-90
2021/03/26 12:45:56;;;;;;;41.20;22.05;;;;;;;;;;5051782;28;20029;-89
2021/03/26 12:48:23;;;;;;;44.28;22.38;;;;;;;;;;5050572;28;20123;-89
2021/03/26 12:50:53;;;;;;;46.08;23.42;;;;;;;;;;5048373;28;20484;-89
2021/03/26 12:53:34;;;;;;;42.70;23.45;;;;;;;;;;5048109;28;20029;-90
2021/03/26 12:56:11;;;;;;;41.03;21.80;;;;;;;;;;5053344;28;20486;-89
2021/03/26 12:58:43;;;;;;;40.70;22.23;;;;;;;;;;5049535;28;20033;-89
2021/03/26 13:01:14;;;;;;;45.42;24.38;;;;;;;;;;5052874;28;20021;-89
2021/03/26 13:04:00;;;;;;;45.28;22.83;;;;;;;;;;5053678;28;20054;-89
2021/03/26 13:06:33;;;;;;;47.25;24.92;;;;;;;;;;5045066;28;20068;-90
2021/03/26 13:09:10;;;;;;;51.10;24.75;;;;;;;;;;5053046;28;20025;-90
2021/03/26 13:11:41;;;;;;;41.63;24.15;;;;;;;;;;5065259;28;20033;-90
2021/03/26 13:14:22;;;;;;;44.65;24.13;;;;;;;;;;5047932;28;20033;-90
2021/03/26 13:16:53;;;;;;;45.63;23.88;;;;;;;;;;5043310;28;20100;-90
2021/03/26 13:19:22;;;;;;;46.00;22.88;;;;;;;;;;5043505;28;20049;-90
2021/03/26 13:22:09;;;;;;;45.22;22.95;;;;;;;;;;5050720;28;20060;-91
2021/03/26 13:24:51;;;;;;;41.55;22.80;;;;;;;;;;5051648;28;20021;-91
2021/03/26 13:27:20;;;;;;;42.38;21.90;;;;;;;;;;5048808;28;20024;-91
2021/03/26 13:30:07;;;;;;;39.88;21.85;;;;;;;;;;5046950;28;20041;-91
2021/03/26 13:32:59;;;;;;;41.83;22.63;;;;;;;;;;5054573;28;20124;-90
2021/03/26 13:35:30;;;;;;;44.73;22.27;;;;;;;;;;5045470;28;20036;-90
2021/03/26 13:38:16;;;;;;;43.38;21.98;;;;;;;;;;5053483;28;20482;-88
2021/03/26 13:40:45;;;;;;;40.95;20.63;;;;;;;;;;5050148;28;20115;-90
2021/03/26 13:43:17;;;;;;;38.47;21.15;;;;;;;;;;5053280;28;20036;-91
2021/03/26 13:45:49;;;;;;;38.67;21.33;;;;;;;;;;5055435;28;20025;-88
2021/03/26 13:48:16;;;;;;;44.78;23.52;;;;;;;;;;5049096;28;20044;-90
2021/03/26 13:50:44;;;;;;;37.58;21.25;;;;;;;;;;5053530;28;20028;-91
2021/03/26 13:53:23;;;;;;;41.95;21.77;;;;;;;;;;5053151;28;20055;-88
2021/03/26 13:55:53;;;;;;;38.45;20.92;;;;;;;;;;5056085;28;20477;-91
2021/03/26 13:58:28;;;;;;;44.28;21.35;;;;;;;;;;5063503;28;20115;-90
2021/03/26 14:00:54;;;;;;;44.80;23.27;;;;;;;;;;5055094;28;20036;-88
2021/03/26 14:03:28;;;;;;;42.53;20.85;;;;;;;;;;5052358;28;20029;-88
2021/03/26 14:06:09;;;;;;;37.45;22.13;;;;;;;;;;5054404;28;20459;-91
2021/03/26 14:08:45;;;;;;;38.72;20.00;;;;;;;;;;5049170;28;20021;-90
2021/03/26 14:11:35;;;;;;;39.50;20.30;;;;;;;;;;5055511;28;20477;-90
2021/03/26 14:14:07;;;;;;;43.53;22.65;;;;;;;;;;5049868;28;20028;-90
2021/03/26 14:16:39;;;;;;;38.42;21.40;;;;;;;;;;5053866;28;20538;-90
2021/03/26 14:19:10;;;;;;;40.43;21.60;;;;;;;;;;5043705;28;20029;-89
2021/03/26 14:21:45;;;;;;;44.15;23.08;;;;;;;;;;5054612;28;20043;-89
2021/03/26 14:24:49;;;;;;;41.45;23.00;;;;;;;;;;5056226;28;20041;-90
2021/03/26 14:27:19;;;;;;;45.67;24.52;;;;;;;;;;4995107;28;20066;-90
2021/03/26 14:29:58;;;;;;;42.88;22.35;;;;;;;;;;4994159;28;20117;-90
2021/03/26 14:32:35;;;;;;;42.25;21.50;;;;;;;;;;5028396;28;20136;-90
2021/03/26 14:35:03;;;;;;;40.08;21.63;;;;;;;;;;5055545;28;20059;-89
2021/03/26 14:37:33;;;;;;;42.42;22.30;;;;;;;;;;5055594;28;20021;-89
2021/03/26 14:40:05;;;;;;;42.58;22.90;;;;;;;;;;5051038;28;20028;-90
2021/03/26 14:42:31;;;;;;;41.90;21.92;;;;;;;;;;5057448;28;20120;-89
2021/03/26 14:45:02;;;;;;;43.13;21.95;;;;;;;;;;5060926;28;20028;-90
2021/03/26 14:47:33;;;;;;;43.38;23.58;;;;;;;;;;5049903;28;20037;-89
2021/03/26 14:50:06;;;;;;;47.53;24.95;;;;;;;;;;5056514;28;20032;-89
2021/03/26 14:52:38;;;;;;;46.17;25.40;;;;;;;;;;5058980;28;20057;-89
2021/03/26 14:55:23;;;;;;;41.70;22.80;;;;;;;;;;5048999;28;20033;-89